Darstellungsparameter: Aktuell verwendete Einstellungen:
Skalierung der Graphiken ... ?
xyx+y,   Skalierungsfaktor:      Skalierung: Modus: x, Faktor: 1
Darstellungszeitraum ... ?
Vom - - bis: - -   Zeitraum: 16.05.2021 - 16.05.2021
Min/Max/Avg-Anzeige ... ?
Zeige MMA aktuell
Zeige MMA Monat
Zeige MMA alles
Zeige --A aktuell
Zeige --A Monat
Zeige --A alles
Keine MMA-Anzeige
MMA:
Minimum Maximum Average (ber die Originaldaten)
MMA-Basis: 16.05.2021 - 16.05.2021
Quicknavigation für Darstellung... ?
Tage:      1T, 2T, 3T, 5T -1T -2T -3T -5T +1T +2T +3T +5T
Wochen: 1W, 2W, 3W -1W -2W -3W +1W +2W +3W
Monate: 1M, 3M, 6M -1M -3M -6M +1M +3M +6M
Jahre:    1J, 3J, 5J, 10J -1J -3J -5J -10J +1J +3J +5J +10J
Nutze für die Darstellung ... ?
Originaldaten oder Mittelwerte auf ...
Stundenbasis Tagesbasis Wochenbasis
Monatsbasis Jahresbasis      Datenbasis: Original-Daten
Darstellen als:
Statistik (Auto) Statistik J:M      Darstellung:

Der gewünschte Datumsbereich war nicht gültig/verfügbar und wurde korrigiert....
Das angegebene Enddatum (20.08.2022 23:59:59) liegt in der Zukunft.
Das angegebene Startdatum (21.05.2022 00:00:00) liegt in der Zukunft.


Zur Graphik,    zurück zur Übersicht aller Sensoren.
 
Tabellarische Datenbersicht: ?
 
Sensor: Nr:Datum:Temp:Feuchte:Taupunkt:
Aussen-T/F 1 16-05-2021 02:00:00 8.3 C 94 % 7.39 C
2 16-05-2021 02:05:00 8.3 C 94 % 7.39 C
3 16-05-2021 02:10:00 8.3 C 94 % 7.39 C
4 16-05-2021 02:15:00 8.3 C 94 % 7.39 C
5 16-05-2021 02:20:00 8.3 C 94 % 7.39 C
6 16-05-2021 02:25:00 8.3 C 94 % 7.39 C
7 16-05-2021 02:30:00 8.4 C 95 % 7.65 C
8 16-05-2021 02:35:00 8.4 C 95 % 7.65 C
9 16-05-2021 02:40:00 8.5 C 95 % 7.75 C
10 16-05-2021 02:45:00 8.5 C 95 % 7.75 C
11 16-05-2021 02:50:00 8.5 C 95 % 7.75 C
12 16-05-2021 02:55:00 8.5 C 95 % 7.75 C
13 16-05-2021 03:00:00 8.4 C 95 % 7.65 C
14 16-05-2021 03:05:00 8.4 C 95 % 7.65 C
15 16-05-2021 03:10:00 8.4 C 95 % 7.65 C
16 16-05-2021 03:15:00 8.4 C 95 % 7.65 C
17 16-05-2021 03:20:00 8.4 C 95 % 7.65 C
18 16-05-2021 03:25:00 8.4 C 95 % 7.65 C
19 16-05-2021 03:30:00 8.5 C 95 % 7.75 C
20 16-05-2021 03:35:00 8.5 C 95 % 7.75 C
21 16-05-2021 03:40:00 8.6 C 95 % 7.85 C
22 16-05-2021 03:45:00 8.7 C 95 % 7.94 C
23 16-05-2021 03:50:00 8.8 C 96 % 8.2 C
24 16-05-2021 03:55:00 8.9 C 96 % 8.3 C
25 16-05-2021 04:00:00 9 C 96 % 8.4 C
Sensor: Nr:Datum:Temp:Feuchte:Taupunkt:
Aussen-T/F 26 16-05-2021 04:05:00 9.1 C 96 % 8.5 C
27 16-05-2021 04:10:00 9.1 C 96 % 8.5 C
28 16-05-2021 04:15:00 9.2 C 96 % 8.6 C
29 16-05-2021 04:20:00 9.3 C 96 % 8.7 C
30 16-05-2021 04:25:00 9.4 C 95 % 8.64 C
31 16-05-2021 04:30:00 9.4 C 95 % 8.64 C
32 16-05-2021 04:35:00 9.4 C 95 % 8.64 C
33 16-05-2021 04:40:00 9.3 C 95 % 8.54 C
34 16-05-2021 04:45:00 9.2 C 94 % 8.29 C
35 16-05-2021 04:50:00 9.1 C 94 % 8.19 C
36 16-05-2021 04:55:00 8.9 C 94 % 7.99 C
37 16-05-2021 05:00:00 8.9 C 94 % 7.99 C
38 16-05-2021 05:05:00 8.8 C 94 % 7.89 C
39 16-05-2021 05:10:00 8.7 C 94 % 7.79 C
40 16-05-2021 05:15:00 8.7 C 94 % 7.79 C
41 16-05-2021 05:20:00 8.7 C 95 % 7.94 C
42 16-05-2021 05:25:00 8.7 C 95 % 7.94 C
43 16-05-2021 05:30:00 8.7 C 95 % 7.94 C
44 16-05-2021 05:35:00 8.7 C 95 % 7.94 C
45 16-05-2021 05:40:00 8.7 C 95 % 7.94 C
46 16-05-2021 05:45:00 8.7 C 95 % 7.94 C
47 16-05-2021 05:50:00 8.8 C 95 % 8.04 C
48 16-05-2021 05:55:00 8.8 C 95 % 8.04 C
49 16-05-2021 06:00:00 8.9 C 95 % 8.14 C
50 16-05-2021 06:05:00 8.9 C 95 % 8.14 C
Sensor: Nr:Datum:Temp:Feuchte:Taupunkt:
Aussen-T/F 51 16-05-2021 06:10:00 9 C 95 % 8.24 C
52 16-05-2021 06:15:00 9 C 95 % 8.24 C
53 16-05-2021 06:20:00 9.1 C 95 % 8.34 C
54 16-05-2021 06:25:00 9.1 C 95 % 8.34 C
55 16-05-2021 06:30:00 9.1 C 96 % 8.5 C
56 16-05-2021 06:35:00 9.2 C 96 % 8.6 C
57 16-05-2021 06:40:00 9.2 C 96 % 8.6 C
58 16-05-2021 06:45:00 9.3 C 96 % 8.7 C
59 16-05-2021 06:50:00 9.4 C 96 % 8.8 C
60 16-05-2021 06:55:00 9.6 C 96 % 8.99 C
61 16-05-2021 07:00:00 9.7 C 96 % 9.09 C
62 16-05-2021 07:05:00 9.8 C 96 % 9.19 C
63 16-05-2021 07:10:00 9.9 C 96 % 9.29 C
64 16-05-2021 07:15:00 10 C 96 % 9.39 C
65 16-05-2021 07:20:00 10.2 C 96 % 9.59 C
66 16-05-2021 07:25:00 10.3 C 96 % 9.69 C
67 16-05-2021 07:30:00 10.4 C 96 % 9.79 C
68 16-05-2021 07:35:00 10.5 C 95 % 9.73 C
69 16-05-2021 07:40:00 10.6 C 95 % 9.83 C
70 16-05-2021 07:45:00 10.6 C 94 % 9.68 C
71 16-05-2021 07:50:00 10.7 C 95 % 9.93 C
72 16-05-2021 07:55:00 10.7 C 95 % 9.93 C
73 16-05-2021 08:00:00 10.7 C 95 % 9.93 C
74 16-05-2021 08:05:00 10.8 C 95 % 10.03 C
75 16-05-2021 08:10:00 10.8 C 93 % 9.71 C
Sensor: Nr:Datum:Temp:Feuchte:Taupunkt:
Aussen-T/F 76 16-05-2021 08:15:00 10.8 C 93 % 9.71 C
77 16-05-2021 08:20:00 10.8 C 93 % 9.71 C
78 16-05-2021 08:25:00 10.8 C 93 % 9.71 C
79 16-05-2021 08:30:00 10.9 C 93 % 9.81 C
80 16-05-2021 08:35:00 10.9 C 93 % 9.81 C
81 16-05-2021 08:40:00 11.1 C 93 % 10.01 C
82 16-05-2021 08:45:00 11.2 C 92 % 9.95 C
83 16-05-2021 08:50:00 11.3 C 92 % 10.05 C
84 16-05-2021 08:55:00 11.3 C 91 % 9.89 C
85 16-05-2021 09:00:00 11.4 C 92 % 10.15 C
86 16-05-2021 09:05:00 11.5 C 92 % 10.25 C
87 16-05-2021 09:10:00 11.6 C 92 % 10.35 C
88 16-05-2021 09:15:00 11.7 C 92 % 10.44 C
89 16-05-2021 09:20:00 11.8 C 92 % 10.54 C
90 16-05-2021 09:25:00 11.8 C 92 % 10.54 C
91 16-05-2021 09:30:00 11.7 C 92 % 10.44 C
92 16-05-2021 09:35:00 11.4 C 91 % 9.98 C
93 16-05-2021 09:40:00 11.1 C 91 % 9.69 C
94 16-05-2021 09:45:00 10.8 C 91 % 9.39 C
95 16-05-2021 09:50:00 10.6 C 92 % 9.36 C
96 16-05-2021 09:55:00 10.4 C 92 % 9.16 C
97 16-05-2021 10:00:00 10.3 C 92 % 9.06 C
98 16-05-2021 10:05:00 10.3 C 93 % 9.22 C
99 16-05-2021 10:10:00 10.5 C 94 % 9.58 C
100 16-05-2021 10:15:00 10.6 C 94 % 9.68 C
Sensor: Nr:Datum:Temp:Feuchte:Taupunkt:
Aussen-T/F 101 16-05-2021 10:20:00 10.7 C 94 % 9.77 C
102 16-05-2021 10:25:00 10.8 C 94 % 9.87 C
103 16-05-2021 10:30:00 11 C 94 % 10.07 C
104 16-05-2021 10:35:00 11.2 C 94 % 10.27 C
105 16-05-2021 10:40:00 11.4 C 95 % 10.63 C
106 16-05-2021 10:45:00 11.6 C 95 % 10.83 C
107 16-05-2021 10:50:00 11.6 C 94 % 10.67 C
108 16-05-2021 10:55:00 11.6 C 94 % 10.67 C
109 16-05-2021 11:00:00 11.7 C 94 % 10.77 C
110 16-05-2021 11:05:00 11.8 C 95 % 11.03 C
111 16-05-2021 11:10:00 12 C 94 % 11.07 C
112 16-05-2021 11:15:00 12.1 C 94 % 11.16 C
113 16-05-2021 11:20:00 12.3 C 94 % 11.36 C
114 16-05-2021 11:25:00 12.6 C 94 % 11.66 C
115 16-05-2021 11:30:00 12.7 C 94 % 11.76 C
116 16-05-2021 11:35:00 12.6 C 93 % 11.5 C
117 16-05-2021 11:40:00 12.4 C 92 % 11.14 C
118 16-05-2021 11:45:00 12.4 C 91 % 10.97 C
119 16-05-2021 11:50:00 12.6 C 91 % 11.17 C
120 16-05-2021 11:55:00 12.6 C 91 % 11.17 C
121 16-05-2021 12:00:00 12.6 C 88 % 10.67 C
122 16-05-2021 12:05:00 12.8 C 89 % 11.03 C
123 16-05-2021 12:10:00 12.9 C 89 % 11.13 C
124 16-05-2021 12:15:00 12.9 C 88 % 10.96 C
125 16-05-2021 12:20:00 12.7 C 86 % 10.42 C
Sensor: Nr:Datum:Temp:Feuchte:Taupunkt:
Aussen-T/F 126 16-05-2021 12:25:00 12.6 C 87 % 10.5 C
127 16-05-2021 12:30:00 12.7 C 89 % 10.94 C
128 16-05-2021 12:35:00 12.7 C 88 % 10.77 C
129 16-05-2021 12:40:00 12.8 C 87 % 10.69 C
130 16-05-2021 12:45:00 13.1 C 87 % 10.99 C
131 16-05-2021 12:50:00 13.4 C 85 % 10.93 C
132 16-05-2021 12:55:00 13.6 C 83 % 10.77 C
133 16-05-2021 13:00:00 13.9 C 84 % 11.24 C
134 16-05-2021 13:05:00 14.2 C 80 % 10.8 C
135 16-05-2021 13:10:00 14.5 C 80 % 11.09 C
136 16-05-2021 13:15:00 14.7 C 77 % 10.71 C
137 16-05-2021 13:20:00 14.8 C 74 % 10.22 C
138 16-05-2021 13:25:00 15 C 75 % 10.61 C
139 16-05-2021 13:30:00 15.1 C 74 % 10.5 C
140 16-05-2021 13:35:00 15.3 C 75 % 10.9 C
141 16-05-2021 13:40:00 15.4 C 74 % 10.79 C
142 16-05-2021 13:45:00 15.6 C 74 % 10.99 C
143 16-05-2021 13:50:00 15.6 C 71 % 10.37 C
144 16-05-2021 13:55:00 15.7 C 71 % 10.46 C
145 16-05-2021 14:00:00 15.7 C 68 % 9.82 C
146 16-05-2021 14:05:00 15.8 C 70 % 10.34 C
147 16-05-2021 14:10:00 15.9 C 68 % 10.01 C
148 16-05-2021 14:15:00 16.1 C 67 % 9.98 C
149 16-05-2021 14:20:00 16.2 C 67 % 10.07 C
150 16-05-2021 14:25:00 16.5 C 66 % 10.13 C
Sensor: Nr:Datum:Temp:Feuchte:Taupunkt:
Aussen-T/F 151 16-05-2021 14:30:00 16.6 C 64 % 9.77 C
152 16-05-2021 14:35:00 16.6 C 70 % 11.11 C
153 16-05-2021 14:40:00 16.7 C 65 % 10.09 C
154 16-05-2021 14:45:00 16.8 C 68 % 10.87 C

Legende:
   Min
   Max


Maximal/Minimal-Werte vom 16.05.2021 - 16.05.2021

Sensor Min Max Avg
Temp
(Aussen-T/F)
8.3 °C
16-05-2021  02:00:00
16.8 °C
16-05-2021  14:45:00
11.01 °C
Feuchte
(Aussen-T/F)
64 %
16-05-2021  14:30:00
96 %
16-05-2021  03:50:00
90.49 %
Taupunkt
(Aussen-T/F)
7.39 C
16-05-2021  02:00:00
11.76 C
16-05-2021  11:30:00
9.37 C

Die Daten stammen von einer Davis Vantage Pro 2 Wetter-Station und werden unter Linux mit der Software wview2wettercgi und aufbereitet. Alle Angaben erfolgen ohne Gewähr für ihre Vollständigkeit oder Richtigkeit.
Kontakt: Rainer Krienke krienke@uni-koblenz.de . Meine Webseiten an der Uni Koblenz oder privat.
Version: $Revision: 0.78 $